Time;durP1;ratioP1;P1;durP2;ratioP2;P2;SDS_P1;SDS_P2;PMS_P1;PMS_P2;Temp;Humidity;BMP_temperature;BMP_pressure;BME280_temperature;BME280_humidity;BME280_pressure;Samples;Min_cycle;Max_cycle;Signal;HPM_P1;HPM_P2
2023/12/04 00:00:45;;;;;;;4.22;3.13;;;11.00;99.90;;;;;;5248387;28;20036;-72
2023/12/04 00:03:16;;;;;;;4.93;3.40;;;11.00;99.90;;;;;;5248992;28;20494;-71
2023/12/04 00:05:47;;;;;;;4.20;3.88;;;11.00;99.90;;;;;;5248738;28;20032;-72
2023/12/04 00:08:18;;;;;;;5.40;2.80;;;11.00;99.90;;;;;;5249009;28;20116;-71
2023/12/04 00:10:50;;;;;;;4.53;3.17;;;10.90;99.90;;;;;;5249091;28;20058;-71
2023/12/04 00:13:21;;;;;;;4.10;3.20;;;10.90;99.90;;;;;;5250807;28;20024;-70
2023/12/04 00:15:52;;;;;;;5.35;4.03;;;11.00;99.90;;;;;;5250675;28;20017;-73
2023/12/04 00:18:23;;;;;;;4.25;3.65;;;11.00;99.90;;;;;;5250389;28;20498;-71
2023/12/04 00:20:54;;;;;;;5.35;3.30;;;10.90;99.90;;;;;;5249724;28;20111;-71
2023/12/04 00:23:25;;;;;;;3.95;3.28;;;10.90;99.90;;;;;;5250389;28;20031;-89
2023/12/04 00:25:55;;;;;;;5.25;3.40;;;10.90;99.90;;;;;;5250317;28;20520;-72
2023/12/04 00:28:28;;;;;;;4.82;2.90;;;10.70;99.90;;;;;;5249480;28;20469;-72
2023/12/04 00:30:59;;;;;;;5.05;3.28;;;10.60;99.90;;;;;;5249712;28;20025;-86
2023/12/04 00:33:30;;;;;;;6.20;4.20;;;10.70;99.90;;;;;;5250102;28;20460;-71
2023/12/04 00:36:01;;;;;;;6.85;4.55;;;10.80;99.90;;;;;;5249530;28;20115;-71
2023/12/04 00:38:32;;;;;;;6.25;5.05;;;10.60;99.90;;;;;;5251182;28;20119;-72
2023/12/04 00:41:03;;;;;;;5.90;5.25;;;10.60;99.90;;;;;;5249210;28;20029;-71
2023/12/04 00:43:34;;;;;;;6.00;5.20;;;10.50;99.90;;;;;;5249058;28;20042;-72
2023/12/04 00:46:05;;;;;;;6.45;5.30;;;10.50;99.90;;;;;;5249048;28;20031;-72
2023/12/04 00:48:36;;;;;;;6.25;4.88;;;10.50;99.90;;;;;;5249064;28;20040;-74
2023/12/04 00:51:07;;;;;;;8.23;5.03;;;10.40;99.90;;;;;;5248819;28;20077;-71
2023/12/04 00:53:38;;;;;;;7.88;4.82;;;10.40;99.90;;;;;;5248092;28;20036;-86
2023/12/04 00:56:09;;;;;;;6.15;4.82;;;10.40;99.90;;;;;;5247641;28;20495;-76
2023/12/04 00:58:40;;;;;;;8.13;5.07;;;10.30;99.90;;;;;;5247816;28;20033;-71
2023/12/04 01:01:11;;;;;;;6.65;3.67;;;10.60;99.90;;;;;;5246225;28;20507;-74
2023/12/04 01:03:42;;;;;;;4.68;3.75;;;10.40;99.90;;;;;;5247328;28;20070;-71
2023/12/04 01:06:22;;;;;;;6.40;3.60;;;10.40;99.90;;;;;;5246264;28;20643;-72
2023/12/04 01:08:54;;;;;;;8.63;4.38;;;10.50;99.90;;;;;;5248688;28;20036;-71
2023/12/04 01:11:25;;;;;;;7.72;5.35;;;10.30;99.90;;;;;;5247232;28;20609;-71
2023/12/04 01:13:56;;;;;;;6.90;4.50;;;10.40;99.90;;;;;;5248349;28;20032;-86
2023/12/04 01:16:28;;;;;;;7.07;4.50;;;10.20;99.90;;;;;;5248551;28;20031;-71
2023/12/04 01:18:59;;;;;;;5.75;4.78;;;10.20;99.90;;;;;;5248379;28;20017;-71
2023/12/04 01:21:30;;;;;;;7.10;5.00;;;10.30;99.90;;;;;;5248441;28;20098;-72
2023/12/04 01:24:01;;;;;;;9.80;6.35;;;10.30;99.90;;;;;;5246991;28;20484;-72
2023/12/04 01:26:32;;;;;;;8.00;4.72;;;10.20;99.90;;;;;;5248270;28;20078;-71
2023/12/04 01:29:03;;;;;;;9.02;5.10;;;10.10;99.90;;;;;;5248026;28;20488;-73
2023/12/04 01:31:34;;;;;;;6.55;4.78;;;10.10;99.90;;;;;;5248010;28;20345;-71
2023/12/04 01:34:05;;;;;;;8.82;5.45;;;10.20;99.90;;;;;;5247855;28;20032;-72
2023/12/04 01:36:41;;;;;;;9.25;4.93;;;10.00;99.90;;;;;;5246383;28;20044;-85
2023/12/04 01:39:11;;;;;;;8.00;4.90;;;10.20;99.90;;;;;;5247838;28;20037;-71
2023/12/04 01:41:42;;;;;;;8.60;4.10;;;10.20;99.90;;;;;;5247858;28;20032;-71
2023/12/04 01:44:13;;;;;;;7.20;4.65;;;10.00;99.90;;;;;;5246989;28;20464;-71
2023/12/04 01:46:44;;;;;;;8.65;4.50;;;10.00;99.90;;;;;;5247628;28;20447;-71
2023/12/04 01:49:15;;;;;;;6.82;4.63;;;9.90;99.90;;;;;;5244594;28;20483;-71
2023/12/04 01:51:47;;;;;;;7.43;4.10;;;9.90;99.90;;;;;;5246305;28;20031;-76
2023/12/04 01:54:18;;;;;;;7.63;4.45;;;9.90;99.90;;;;;;5246401;28;20028;-73
2023/12/04 01:56:49;;;;;;;7.22;4.47;;;9.80;99.90;;;;;;5246181;28;20048;-71
2023/12/04 01:59:21;;;;;;;4.63;4.15;;;9.80;99.90;;;;;;5246373;28;20024;-74
2023/12/04 02:01:52;;;;;;;5.35;4.50;;;9.50;99.90;;;;;;5246235;28;20454;-71
2023/12/04 02:04:23;;;;;;;7.93;5.20;;;9.60;99.90;;;;;;5247563;28;20025;-74
2023/12/04 02:06:54;;;;;;;7.18;5.93;;;9.50;99.90;;;;;;5246835;28;20459;-71
2023/12/04 02:09:26;;;;;;;10.30;6.10;;;9.50;99.90;;;;;;5246473;28;20070;-73
2023/12/04 02:11:58;;;;;;;12.32;6.45;;;9.50;99.90;;;;;;5247642;28;20031;-71
2023/12/04 02:14:29;;;;;;;8.80;6.60;;;9.50;99.90;;;;;;5247385;28;20033;-83
2023/12/04 02:17:02;;;;;;;10.52;7.55;;;9.40;99.90;;;;;;5247323;28;20537;-85
2023/12/04 02:19:33;;;;;;;7.93;5.88;;;9.40;99.90;;;;;;5247279;28;20021;-71
2023/12/04 02:22:04;;;;;;;9.75;6.55;;;9.50;99.90;;;;;;5246981;28;20101;-83
2023/12/04 02:24:35;;;;;;;9.85;6.88;;;9.40;99.90;;;;;;5247300;28;20024;-74
2023/12/04 02:27:17;;;;;;;8.73;6.50;;;9.30;99.90;;;;;;5247163;28;20350;-71
2023/12/04 02:29:55;;;;;;;8.57;6.43;;;9.20;99.90;;;;;;5247170;28;20553;-71
2023/12/04 02:32:33;;;;;;;8.93;6.45;;;9.40;99.90;;;;;;5245873;28;20016;-71
2023/12/04 02:35:06;;;;;;;7.88;6.50;;;9.40;99.90;;;;;;5247149;28;20028;-71
2023/12/04 02:37:37;;;;;;;7.40;6.70;;;9.40;99.90;;;;;;5246903;28;20049;-73
2023/12/04 02:40:10;;;;;;;8.98;7.05;;;9.30;99.90;;;;;;5245230;28;20028;-71
2023/12/04 02:42:41;;;;;;;11.77;7.32;;;9.30;99.90;;;;;;5246796;28;20012;-71
2023/12/04 02:45:12;;;;;;;6.90;6.13;;;9.20;99.90;;;;;;5244487;28;20033;-71
2023/12/04 02:47:43;;;;;;;11.10;8.02;;;9.20;99.90;;;;;;5245720;28;20040;-71
2023/12/04 02:50:13;;;;;;;8.68;7.63;;;9.20;99.90;;;;;;5244306;28;20127;-71
2023/12/04 02:52:44;;;;;;;8.73;7.63;;;9.00;99.90;;;;;;5245655;28;20033;-72
2023/12/04 02:55:15;;;;;;;8.35;5.80;;;8.90;99.90;;;;;;5244100;28;20029;-72
2023/12/04 02:57:46;;;;;;;9.60;6.28;;;8.90;99.90;;;;;;5244452;28;20036;-71
2023/12/04 03:00:17;;;;;;;7.82;5.82;;;8.90;99.90;;;;;;5249496;28;20040;-74
2023/12/04 03:02:48;;;;;;;9.50;6.50;;;9.00;99.90;;;;;;5251128;28;20036;-71
2023/12/04 03:05:19;;;;;;;10.88;6.38;;;9.00;99.90;;;;;;5251042;28;20039;-71
2023/12/04 03:07:50;;;;;;;12.73;6.72;;;9.00;99.90;;;;;;5250952;28;20473;-71
2023/12/04 03:10:21;;;;;;;8.85;6.57;;;9.20;99.90;;;;;;5250935;28;20100;-71
2023/12/04 03:12:52;;;;;;;8.80;6.68;;;9.20;99.90;;;;;;5250619;28;20028;-70
2023/12/04 03:15:23;;;;;;;8.45;6.78;;;9.10;99.90;;;;;;5250932;28;20021;-72
2023/12/04 03:17:54;;;;;;;9.45;6.18;;;9.10;99.90;;;;;;5250928;28;20468;-71
2023/12/04 03:20:24;;;;;;;9.73;7.40;;;9.00;99.90;;;;;;5251216;28;20012;-71
2023/12/04 03:22:55;;;;;;;8.95;7.07;;;8.90;99.90;;;;;;5249506;28;20016;-71
2023/12/04 03:25:26;;;;;;;7.18;6.03;;;9.10;99.90;;;;;;5250535;28;20027;-87
2023/12/04 03:27:57;;;;;;;10.13;6.55;;;8.80;99.90;;;;;;5250518;28;20032;-78
2023/12/04 03:30:28;;;;;;;9.15;5.90;;;8.90;99.90;;;;;;5250449;28;20036;-82
2023/12/04 03:32:59;;;;;;;9.65;6.05;;;8.90;99.90;;;;;;5250406;28;20086;-72
2023/12/04 03:35:30;;;;;;;7.82;6.18;;;8.90;99.90;;;;;;5249929;28;20456;-71
2023/12/04 03:38:00;;;;;;;6.88;5.90;;;8.90;99.90;;;;;;5249648;28;20411;-72
2023/12/04 03:40:32;;;;;;;6.53;5.97;;;8.90;99.90;;;;;;5248074;28;20021;-71
2023/12/04 03:43:02;;;;;;;7.88;7.03;;;8.80;99.90;;;;;;5249187;28;20078;-72
2023/12/04 03:45:33;;;;;;;7.70;6.18;;;8.90;99.90;;;;;;5247629;28;20456;-71
2023/12/04 03:48:04;;;;;;;9.13;5.90;;;8.80;99.90;;;;;;5248801;28;20369;-72
2023/12/04 03:50:35;;;;;;;7.57;6.53;;;8.90;99.90;;;;;;5248954;28;20495;-78
2023/12/04 03:53:06;;;;;;;8.45;6.43;;;8.90;99.90;;;;;;5248850;28;20107;-71
2023/12/04 03:55:37;;;;;;;7.40;5.55;;;8.80;99.90;;;;;;5248003;28;20032;-76
2023/12/04 03:58:08;;;;;;;8.50;6.70;;;8.90;99.90;;;;;;5249771;28;20024;-71
2023/12/04 04:00:41;;;;;;;8.70;5.40;;;8.80;99.90;;;;;;5250024;28;20035;-71
2023/12/04 04:03:11;;;;;;;8.02;6.13;;;8.80;99.90;;;;;;5249704;28;20025;-71
2023/12/04 04:05:42;;;;;;;9.82;6.22;;;8.70;99.90;;;;;;5249769;28;20032;-73
2023/12/04 04:08:13;;;;;;;7.30;5.90;;;8.70;99.90;;;;;;5248338;28;20049;-71
2023/12/04 04:10:45;;;;;;;9.23;5.78;;;8.70;99.90;;;;;;5248715;28;20032;-84
2023/12/04 04:13:16;;;;;;;8.35;5.70;;;8.80;99.90;;;;;;5248443;28;20078;-71
2023/12/04 04:15:47;;;;;;;8.23;6.05;;;8.60;99.90;;;;;;5249536;28;20418;-71
2023/12/04 04:18:18;;;;;;;6.97;6.25;;;8.70;99.90;;;;;;5249725;28;20017;-71
2023/12/04 04:20:48;;;;;;;8.52;5.88;;;8.70;99.90;;;;;;5249500;28;20029;-73
2023/12/04 04:23:19;;;;;;;7.68;6.32;;;8.70;99.90;;;;;;5249576;28;20025;-71
2023/12/04 04:25:50;;;;;;;8.90;6.57;;;8.80;99.90;;;;;;5249639;28;20028;-71
2023/12/04 04:28:21;;;;;;;9.95;7.38;;;8.80;99.90;;;;;;5249293;28;20033;-78
2023/12/04 04:30:52;;;;;;;9.93;6.60;;;8.70;99.90;;;;;;5247811;28;20653;-72
2023/12/04 04:33:23;;;;;;;12.60;7.82;;;8.80;99.90;;;;;;5249003;28;20042;-72
2023/12/04 04:35:54;;;;;;;9.25;6.90;;;8.70;99.90;;;;;;5248524;28;20036;-71
2023/12/04 04:38:25;;;;;;;10.40;7.05;;;8.70;99.90;;;;;;5248080;28;20032;-72
2023/12/04 04:40:55;;;;;;;8.32;6.75;;;8.80;99.90;;;;;;5247834;28;20020;-71
2023/12/04 04:43:26;;;;;;;10.80;7.20;;;8.80;99.90;;;;;;5247994;28;20051;-71
2023/12/04 04:45:57;;;;;;;11.25;8.13;;;8.70;99.90;;;;;;5246724;28;20531;-71
2023/12/04 04:48:28;;;;;;;8.27;7.20;;;8.80;99.90;;;;;;5247743;28;20063;-72
2023/12/04 04:50:59;;;;;;;12.45;6.75;;;8.70;99.90;;;;;;5247256;28;20021;-71
2023/12/04 04:53:30;;;;;;;9.52;6.82;;;8.70;99.90;;;;;;5248684;28;20095;-71
2023/12/04 04:56:01;;;;;;;9.40;6.85;;;8.60;99.90;;;;;;5248651;28;20028;-80
2023/12/04 04:58:31;;;;;;;10.88;8.02;;;8.70;99.90;;;;;;5248763;28;20027;-71
2023/12/04 05:01:02;;;;;;;10.00;7.35;;;8.80;99.90;;;;;;5247767;28;20033;-72
2023/12/04 05:03:33;;;;;;;8.60;7.07;;;8.80;99.90;;;;;;5248254;28;20473;-71
2023/12/04 05:06:05;;;;;;;11.50;6.70;;;8.60;99.90;;;;;;5248390;28;20060;-76
2023/12/04 05:08:36;;;;;;;10.32;7.32;;;8.70;99.90;;;;;;5248583;28;20044;-74
2023/12/04 05:11:07;;;;;;;15.43;8.63;;;8.70;99.90;;;;;;5248443;28;20357;-74
2023/12/04 05:13:37;;;;;;;11.05;7.57;;;8.70;99.90;;;;;;5248355;28;20039;-71
2023/12/04 05:16:09;;;;;;;13.35;8.43;;;8.70;99.90;;;;;;5248419;28;20024;-72
2023/12/04 05:18:40;;;;;;;11.85;8.07;;;8.70;99.90;;;;;;5248351;28;20082;-85
2023/12/04 05:21:11;;;;;;;18.25;7.88;;;8.70;99.90;;;;;;5248048;28;20025;-71
2023/12/04 05:23:42;;;;;;;11.63;7.90;;;8.70;99.90;;;;;;5248128;28;20028;-71
2023/12/04 05:26:13;;;;;;;10.70;7.32;;;8.50;99.90;;;;;;5248272;28;20623;-71
2023/12/04 05:28:44;;;;;;;15.77;7.90;;;8.50;99.90;;;;;;5247153;28;20087;-78
2023/12/04 05:31:14;;;;;;;12.65;8.10;;;8.60;99.90;;;;;;5247441;28;20384;-72
2023/12/04 05:33:45;;;;;;;14.23;7.53;;;8.50;99.90;;;;;;5246902;28;20126;-71
2023/12/04 05:36:16;;;;;;;11.70;7.93;;;8.50;99.90;;;;;;5246392;28;20496;-71
2023/12/04 05:38:47;;;;;;;16.27;8.70;;;8.40;99.90;;;;;;5246603;28;20033;-71
2023/12/04 05:41:18;;;;;;;22.77;11.43;;;8.40;99.90;;;;;;5246822;28;20024;-77
2023/12/04 05:43:49;;;;;;;12.27;8.90;;;8.50;99.90;;;;;;5246671;28;20077;-71
2023/12/04 05:46:19;;;;;;;16.23;10.15;;;8.50;99.90;;;;;;5246068;28;20033;-71
2023/12/04 05:48:50;;;;;;;13.52;8.65;;;8.50;99.90;;;;;;5247814;28;20044;-71
2023/12/04 05:51:22;;;;;;;11.32;9.20;;;8.30;99.90;;;;;;5247714;28;20099;-72
2023/12/04 05:53:53;;;;;;;12.32;7.43;;;8.30;99.90;;;;;;5247888;28;20467;-75
2023/12/04 05:56:23;;;;;;;13.93;7.85;;;8.30;99.90;;;;;;5247753;28;20077;-72
2023/12/04 05:58:55;;;;;;;12.38;8.18;;;8.20;99.90;;;;;;5247475;28;20111;-83
2023/12/04 06:01:26;;;;;;;11.88;6.95;;;8.20;99.90;;;;;;5246293;28;20035;-84
2023/12/04 06:03:57;;;;;;;13.02;7.53;;;8.10;99.90;;;;;;5246233;28;20024;-84
2023/12/04 06:06:28;;;;;;;10.65;7.35;;;8.30;99.90;;;;;;5247294;28;20039;-83
2023/12/04 06:08:59;;;;;;;12.05;7.50;;;8.10;99.90;;;;;;5247283;28;20047;-71
2023/12/04 06:11:30;;;;;;;10.48;7.28;;;8.10;99.90;;;;;;5246221;28;20388;-71
2023/12/04 06:14:00;;;;;;;12.32;7.63;;;8.20;99.90;;;;;;5247396;28;20486;-79
2023/12/04 06:16:31;;;;;;;10.85;6.85;;;8.20;99.90;;;;;;5247203;28;20408;-71
2023/12/04 06:19:04;;;;;;;10.40;6.55;;;8.10;99.90;;;;;;5247201;28;20071;-72
2023/12/04 06:21:35;;;;;;;13.93;7.45;;;8.30;99.90;;;;;;5247011;28;20016;-71
2023/12/04 06:24:08;;;;;;;9.70;6.68;;;8.00;99.90;;;;;;5245452;28;20032;-71
2023/12/04 06:26:44;;;;;;;9.80;6.32;;;8.00;99.90;;;;;;5245290;28;20056;-71
2023/12/04 06:29:16;;;;;;;11.57;6.85;;;7.90;99.90;;;;;;5245940;28;20154;-72
2023/12/04 06:31:47;;;;;;;9.60;7.43;;;8.00;99.90;;;;;;5245919;28;20152;-72
2023/12/04 06:34:18;;;;;;;10.00;6.78;;;8.00;99.90;;;;;;5244156;28;20384;-73
2023/12/04 06:36:49;;;;;;;9.35;7.25;;;7.90;99.90;;;;;;5245661;28;20496;-71
2023/12/04 06:39:21;;;;;;;7.20;6.50;;;8.00;99.90;;;;;;5245730;28;20029;-74
2023/12/04 06:41:52;;;;;;;9.68;6.70;;;8.00;99.90;;;;;;5246276;28;20731;-70
2023/12/04 06:44:24;;;;;;;9.30;6.80;;;8.10;99.90;;;;;;5247030;28;20422;-72
2023/12/04 06:46:59;;;;;;;8.15;6.68;;;8.10;99.90;;;;;;5246961;28;20024;-72
2023/12/04 06:49:32;;;;;;;11.10;6.93;;;8.10;99.90;;;;;;5247410;28;20129;-71
2023/12/04 06:52:04;;;;;;;13.00;7.30;;;7.90;99.90;;;;;;5245803;28;20036;-72
2023/12/04 06:54:35;;;;;;;52.38;7.35;;;8.00;99.90;;;;;;5245976;28;20063;-71
2023/12/04 06:57:05;;;;;;;12.27;6.13;;;8.00;99.90;;;;;;5245829;28;20057;-71
2023/12/04 06:59:36;;;;;;;10.20;6.32;;;7.90;99.90;;;;;;5245882;28;20035;-70
2023/12/04 07:02:07;;;;;;;9.90;7.00;;;7.90;99.90;;;;;;5246965;28;20029;-84
2023/12/04 07:04:39;;;;;;;8.93;5.65;;;7.80;99.90;;;;;;5246894;28;20366;-72
2023/12/04 07:07:12;;;;;;;10.52;5.05;;;7.90;99.90;;;;;;5245459;28;20063;-84
2023/12/04 07:09:43;;;;;;;12.55;6.32;;;7.90;99.90;;;;;;5246841;28;20028;-71
2023/12/04 07:12:14;;;;;;;8.50;6.28;;;8.00;99.90;;;;;;5246764;28;20364;-72
2023/12/04 07:14:44;;;;;;;7.97;5.80;;;8.10;99.90;;;;;;5246675;28;20028;-71
2023/12/04 07:17:16;;;;;;;8.98;5.28;;;7.90;99.90;;;;;;5246887;28;20495;-72
2023/12/04 07:19:47;;;;;;;8.93;5.57;;;7.90;99.90;;;;;;5245901;28;20059;-71
2023/12/04 07:22:17;;;;;;;7.53;5.65;;;7.90;99.90;;;;;;5246317;28;20082;-71
2023/12/04 07:24:48;;;;;;;6.68;5.50;;;7.90;99.90;;;;;;5245387;28;20387;-71
2023/12/04 07:27:19;;;;;;;9.73;6.70;;;7.90;99.90;;;;;;5245328;28;20040;-74
2023/12/04 07:29:50;;;;;;;8.80;5.40;;;7.90;99.90;;;;;;5245379;28;20028;-71
2023/12/04 07:32:21;;;;;;;12.40;7.50;;;7.80;99.90;;;;;;5244324;28;20059;-70
2023/12/04 07:34:52;;;;;;;9.55;5.97;;;7.90;99.90;;;;;;5245169;28;20025;-71
2023/12/04 07:37:23;;;;;;;11.70;6.72;;;7.80;99.90;;;;;;5245291;28;20056;-71
2023/12/04 07:39:54;;;;;;;7.38;6.10;;;7.90;99.90;;;;;;5246307;28;20067;-83
2023/12/04 07:42:25;;;;;;;8.13;5.68;;;8.00;99.90;;;;;;5245178;28;20029;-71
2023/12/04 07:44:56;;;;;;;9.00;5.82;;;8.00;99.90;;;;;;5246408;28;20020;-71
2023/12/04 07:47:26;;;;;;;8.40;6.28;;;8.00;99.90;;;;;;5248868;28;20107;-75
2023/12/04 07:49:57;;;;;;;13.43;6.80;;;8.00;99.90;;;;;;5250011;28;20037;-73
2023/12/04 07:52:28;;;;;;;12.77;6.03;;;8.00;99.90;;;;;;5248717;28;20107;-74
2023/12/04 07:54:59;;;;;;;9.18;5.78;;;7.90;99.90;;;;;;5250013;28;20063;-83
2023/12/04 07:57:30;;;;;;;10.50;6.38;;;8.00;99.90;;;;;;5249666;28;20357;-71
2023/12/04 08:00:01;;;;;;;12.68;6.13;;;8.00;99.90;;;;;;5249676;28;20029;-71
2023/12/04 08:02:32;;;;;;;9.95;6.50;;;7.90;99.90;;;;;;5248779;28;20044;-71
2023/12/04 08:05:03;;;;;;;8.07;5.43;;;8.00;99.90;;;;;;5249523;28;20428;-71
2023/12/04 08:07:34;;;;;;;8.95;5.43;;;8.00;99.90;;;;;;5248500;28;20032;-71
2023/12/04 08:10:06;;;;;;;9.07;5.03;;;7.90;99.90;;;;;;5249955;28;20094;-71
2023/12/04 08:12:37;;;;;;;10.68;5.28;;;7.90;99.90;;;;;;5249948;28;20040;-72
2023/12/04 08:15:08;;;;;;;5.85;5.22;;;8.00;99.90;;;;;;5248264;28;20052;-70
2023/12/04 08:17:40;;;;;;;7.70;5.60;;;7.80;99.90;;;;;;5248719;28;20418;-80
2023/12/04 08:20:14;;;;;;;9.38;5.43;;;7.90;99.90;;;;;;5248670;28;20025;-71
2023/12/04 08:22:45;;;;;;;7.78;5.47;;;7.90;99.90;;;;;;5248221;28;20019;-71
2023/12/04 08:25:16;;;;;;;7.68;5.78;;;8.00;99.90;;;;;;5248209;28;20020;-71
2023/12/04 08:27:49;;;;;;;8.02;5.80;;;7.90;99.90;;;;;;5246856;28;20036;-71
2023/12/04 08:30:20;;;;;;;6.55;5.80;;;7.80;99.90;;;;;;5246784;28;20020;-72
2023/12/04 08:32:51;;;;;;;8.05;5.85;;;7.90;99.90;;;;;;5246880;28;20044;-71
2023/12/04 08:35:22;;;;;;;11.07;6.25;;;7.90;99.90;;;;;;5248749;28;20035;-84
2023/12/04 08:37:53;;;;;;;10.25;6.65;;;7.90;99.90;;;;;;5248635;28;20135;-71
2023/12/04 08:40:23;;;;;;;7.32;6.57;;;7.90;99.90;;;;;;5249336;28;20608;-72
2023/12/04 08:42:55;;;;;;;7.40;6.15;;;7.90;99.90;;;;;;5247814;28;20063;-70
2023/12/04 08:45:25;;;;;;;10.40;7.40;;;7.80;99.90;;;;;;5249131;28;20024;-71
2023/12/04 08:47:56;;;;;;;13.60;7.85;;;7.80;99.90;;;;;;5248790;28;20109;-71
2023/12/04 08:50:27;;;;;;;7.00;6.30;;;7.80;99.90;;;;;;5249111;28;20025;-71
2023/12/04 08:52:58;;;;;;;7.22;6.28;;;7.80;99.90;;;;;;5248817;28;20480;-72
2023/12/04 08:55:29;;;;;;;6.80;6.10;;;7.70;99.90;;;;;;5248978;28;20024;-71
2023/12/04 08:58:00;;;;;;;7.20;6.60;;;7.70;99.90;;;;;;5248491;28;20074;-85
2023/12/04 09:00:32;;;;;;;6.82;6.22;;;7.60;99.90;;;;;;5248759;28;20060;-71
2023/12/04 09:03:03;;;;;;;6.93;6.22;;;7.60;99.90;;;;;;5248607;28;20060;-72
2023/12/04 09:05:34;;;;;;;7.53;6.07;;;7.50;99.90;;;;;;5248594;28;20048;-71
2023/12/04 09:08:05;;;;;;;8.35;7.50;;;7.90;99.90;;;;;;5248506;28;20048;-84
2023/12/04 09:10:36;;;;;;;7.28;6.57;;;7.70;99.90;;;;;;5248644;28;20374;-71
2023/12/04 09:13:07;;;;;;;7.50;6.80;;;7.80;99.90;;;;;;5247927;28;20032;-71
2023/12/04 09:15:38;;;;;;;7.78;5.68;;;7.70;99.90;;;;;;5247978;28;20029;-71
2023/12/04 09:18:09;;;;;;;7.05;6.38;;;7.70;99.90;;;;;;5247293;28;20020;-71
2023/12/04 09:20:40;;;;;;;7.55;6.93;;;7.80;99.90;;;;;;5245875;28;20078;-71
2023/12/04 09:23:11;;;;;;;6.50;5.78;;;7.70;99.90;;;;;;5247383;28;20034;-75
2023/12/04 09:25:41;;;;;;;5.60;4.97;;;7.60;99.90;;;;;;5247236;28;20057;-72
2023/12/04 09:28:13;;;;;;;6.28;5.13;;;7.50;99.90;;;;;;5245643;28;20047;-71
2023/12/04 09:30:44;;;;;;;6.15;5.63;;;7.60;99.90;;;;;;5247684;28;20024;-71
2023/12/04 09:33:14;;;;;;;6.60;5.93;;;7.50;99.90;;;;;;5248266;28;20037;-71
2023/12/04 09:35:45;;;;;;;6.18;5.68;;;7.50;99.90;;;;;;5247950;28;20028;-71
2023/12/04 09:38:16;;;;;;;7.22;5.82;;;7.50;99.90;;;;;;5248143;28;20111;-71
2023/12/04 09:40:47;;;;;;;6.57;5.97;;;7.50;99.90;;;;;;5248094;28;20092;-71
2023/12/04 09:43:19;;;;;;;6.90;6.20;;;7.60;99.90;;;;;;5247959;28;20037;-75
2023/12/04 09:45:50;;;;;;;7.45;6.38;;;7.50;99.90;;;;;;5247917;28;20078;-70
2023/12/04 09:48:24;;;;;;;7.22;6.53;;;7.50;99.90;;;;;;5247547;28;20044;-71
2023/12/04 09:50:55;;;;;;;7.38;6.68;;;7.50;99.90;;;;;;5714810;22;20061;-73
2023/12/04 09:53:27;;;;;;;7.95;7.15;;;7.60;99.90;;;;;;5184588;28;20049;-85
2023/12/04 09:56:02;;;;;;;10.20;7.88;;;7.50;99.90;;;;;;5184864;28;20037;-74
2023/12/04 09:58:36;;;;;;;9.30;7.05;;;7.50;99.90;;;;;;5186199;28;20096;-75
2023/12/04 10:01:07;;;;;;;8.05;7.35;;;7.50;99.90;;;;;;5186133;28;20030;-84
2023/12/04 10:03:40;;;;;;;9.25;7.30;;;7.60;99.90;;;;;;5186007;28;20080;-73
2023/12/04 10:06:16;;;;;;;6.03;5.53;;;7.70;99.90;;;;;;5185784;28;20067;-72
2023/12/04 10:08:47;;;;;;;7.25;6.57;;;7.50;99.90;;;;;;5184679;28;20034;-73
2023/12/04 10:11:18;;;;;;;7.70;6.95;;;7.50;99.90;;;;;;5185510;28;20032;-75
2023/12/04 10:13:49;;;;;;;8.35;7.65;;;7.70;99.90;;;;;;5184848;28;20034;-73
2023/12/04 10:16:37;;;;;;;7.07;6.53;;;7.70;99.90;;;;;;5184605;28;20109;-73
2023/12/04 10:19:29;;;;;;;7.07;6.32;;;7.70;99.90;;;;;;5184695;28;20025;-73
2023/12/04 10:22:00;;;;;;;6.50;5.97;;;7.60;99.90;;;;;;5201401;28;20036;-82
2023/12/04 10:24:36;;;;;;;7.22;6.45;;;7.60;99.90;;;;;;5204657;28;20481;-73
2023/12/04 10:27:11;;;;;;;6.47;5.97;;;7.60;99.90;;;;;;5205708;28;20124;-73
2023/12/04 10:29:47;;;;;;;7.45;6.72;;;7.60;99.90;;;;;;5206136;28;20049;-72
2023/12/04 10:32:24;;;;;;;7.90;6.93;;;7.60;99.90;;;;;;5205903;28;20029;-76
2023/12/04 10:34:55;;;;;;;7.47;6.78;;;7.60;99.90;;;;;;5204413;28;20120;-73
2023/12/04 10:37:29;;;;;;;7.47;6.60;;;7.70;99.90;;;;;;5205790;28;20025;-74
2023/12/04 10:40:03;;;;;;;11.15;7.22;;;7.60;99.90;;;;;;5205675;28;20061;-78
2023/12/04 10:42:34;;;;;;;7.88;7.25;;;7.50;99.90;;;;;;5204528;28;20030;-73
2023/12/04 10:45:06;;;;;;;7.80;6.80;;;7.50;99.90;;;;;;5205652;28;20033;-85
2023/12/04 10:47:37;;;;;;;7.57;6.88;;;7.50;99.90;;;;;;5205754;28;20037;-73
2023/12/04 10:50:09;;;;;;;8.38;7.53;;;7.50;99.90;;;;;;5205613;28;20455;-74
2023/12/04 10:52:41;;;;;;;9.25;7.63;;;7.60;99.90;;;;;;5205842;28;20139;-74
2023/12/04 10:55:12;;;;;;;8.13;7.32;;;7.60;99.90;;;;;;5205378;28;20107;-73
2023/12/04 10:57:43;;;;;;;8.32;7.18;;;7.60;99.90;;;;;;5204411;28;20381;-74
2023/12/04 11:00:16;;;;;;;8.48;7.63;;;7.60;99.90;;;;;;5205549;28;20022;-72
2023/12/04 11:02:48;;;;;;;8.43;6.80;;;7.70;99.90;;;;;;5205648;28;20021;-73
2023/12/04 11:05:21;;;;;;;8.13;7.43;;;7.50;99.90;;;;;;5204709;28;20053;-73
2023/12/04 11:07:57;;;;;;;7.38;6.65;;;7.60;99.90;;;;;;5204798;28;20448;-73
2023/12/04 11:10:31;;;;;;;6.55;5.88;;;7.60;99.90;;;;;;5204454;28;20038;-72
2023/12/04 11:13:28;;;;;;;6.72;6.13;;;7.60;99.90;;;;;;5204342;28;20021;-73
2023/12/04 11:16:09;;;;;;;6.13;5.63;;;7.60;99.90;;;;;;5204352;28;20025;-73
2023/12/04 11:18:44;;;;;;;6.50;5.90;;;7.50;99.90;;;;;;5204347;28;20129;-73
2023/12/04 11:21:18;;;;;;;6.90;6.32;;;7.50;99.90;;;;;;5205007;28;20032;-74
2023/12/04 11:23:50;;;;;;;6.50;6.00;;;7.60;99.90;;;;;;5208971;28;20026;-73
2023/12/04 11:26:22;;;;;;;6.47;5.45;;;7.60;99.90;;;;;;5209448;28;20033;-83
2023/12/04 11:28:54;;;;;;;5.60;5.18;;;7.60;99.90;;;;;;5209298;28;20377;-72
2023/12/04 11:31:26;;;;;;;6.22;5.63;;;7.50;99.90;;;;;;5207968;28;20022;-73
2023/12/04 11:34:05;;;;;;;7.45;6.75;;;7.60;99.90;;;;;;5209197;28;20033;-84
2023/12/04 11:36:37;;;;;;;6.82;6.15;;;7.70;99.90;;;;;;5209262;28;20491;-85
2023/12/04 11:39:11;;;;;;;7.63;6.93;;;7.80;99.90;;;;;;5209093;28;20033;-85
2023/12/04 11:41:43;;;;;;;6.30;5.80;;;7.70;99.90;;;;;;5209273;28;20071;-76
2023/12/04 11:44:14;;;;;;;8.48;6.75;;;7.80;99.90;;;;;;5208968;28;20026;-73
2023/12/04 11:47:04;;;;;;;7.00;6.40;;;7.80;99.90;;;;;;5207462;28;20029;-72
2023/12/04 11:49:35;;;;;;;6.43;5.82;;;7.90;99.90;;;;;;5209093;28;20029;-84
2023/12/04 11:52:07;;;;;;;7.78;7.00;;;8.00;99.90;;;;;;5208635;28;20147;-73
2023/12/04 11:54:59;;;;;;;6.38;5.70;;;7.90;99.90;;;;;;5207667;28;20107;-73
2023/12/04 11:57:39;;;;;;;6.72;6.03;;;8.10;99.90;;;;;;5208814;28;20029;-72
2023/12/04 12:00:21;;;;;;;7.82;7.13;;;8.10;99.90;;;;;;5208607;28;20045;-73
2023/12/04 12:02:54;;;;;;;7.80;7.20;;;8.10;99.90;;;;;;5207375;28;20041;-72
2023/12/04 12:05:26;;;;;;;7.20;6.47;;;8.10;99.90;;;;;;5206214;28;20116;-72
2023/12/04 12:07:59;;;;;;;7.68;6.97;;;8.00;99.90;;;;;;5207202;28;20421;-73
2023/12/04 12:10:30;;;;;;;7.70;7.10;;;7.90;99.90;;;;;;5207411;28;20025;-78
2023/12/04 12:13:01;;;;;;;9.05;8.25;;;7.90;99.90;;;;;;5207190;28;20060;-72
2023/12/04 12:15:33;;;;;;;8.32;7.63;;;7.90;99.90;;;;;;5207186;28;20024;-73
2023/12/04 12:18:06;;;;;;;8.20;7.50;;;8.00;99.90;;;;;;5207226;28;20482;-78
2023/12/04 12:20:37;;;;;;;8.45;7.57;;;7.90;99.90;;;;;;5208161;28;20500;-73
2023/12/04 12:23:08;;;;;;;7.45;6.75;;;8.00;99.90;;;;;;5206922;28;20137;-73
2023/12/04 12:25:39;;;;;;;7.57;6.90;;;8.00;99.90;;;;;;5208155;28;20541;-73
2023/12/04 12:28:10;;;;;;;8.10;7.40;;;7.90;99.90;;;;;;5207769;28;20084;-77
2023/12/04 12:30:42;;;;;;;6.78;6.18;;;7.90;99.90;;;;;;5208144;28;20057;-72
2023/12/04 12:33:15;;;;;;;7.65;7.05;;;7.90;99.90;;;;;;5206031;28;20026;-73
2023/12/04 12:35:47;;;;;;;6.78;6.13;;;7.80;99.90;;;;;;5208175;28;20422;-74
2023/12/04 12:38:19;;;;;;;5.85;5.35;;;7.80;99.90;;;;;;5206402;28;20037;-72
2023/12/04 12:40:50;;;;;;;6.47;5.97;;;7.90;99.90;;;;;;5207852;28;20029;-73
2023/12/04 12:43:23;;;;;;;6.20;5.60;;;7.80;99.90;;;;;;5207688;28;20204;-73
2023/12/04 12:45:54;;;;;;;7.65;6.95;;;7.80;99.90;;;;;;5207991;28;20029;-73
2023/12/04 12:48:27;;;;;;;7.28;6.65;;;7.90;99.90;;;;;;5207637;28;20092;-72
2023/12/04 12:50:58;;;;;;;7.95;7.25;;;7.90;99.90;;;;;;5206070;28;20095;-73
2023/12/04 12:53:31;;;;;;;8.23;7.43;;;7.90;99.90;;;;;;5206335;28;20045;-72
2023/12/04 12:56:03;;;;;;;8.55;7.78;;;7.90;99.90;;;;;;5207485;28;20095;-73
2023/12/04 12:58:35;;;;;;;10.07;7.45;;;8.00;99.90;;;;;;5207328;28;20347;-74
2023/12/04 13:01:10;;;;;;;7.30;6.55;;;8.10;99.90;;;;;;5206598;28;20029;-73
2023/12/04 13:03:45;;;;;;;8.32;6.65;;;8.10;99.90;;;;;;5206393;28;20127;-73
2023/12/04 13:06:17;;;;;;;7.10;6.40;;;8.20;99.90;;;;;;5206302;28;20025;-73
2023/12/04 13:08:48;;;;;;;6.57;5.97;;;8.10;99.90;;;;;;5206125;28;20103;-72
2023/12/04 13:11:19;;;;;;;6.20;5.57;;;8.10;99.90;;;;;;5206217;28;20025;-74
2023/12/04 13:13:50;;;;;;;7.80;5.28;;;8.10;99.90;;;;;;5206159;28;20048;-72
2023/12/04 13:16:21;;;;;;;6.78;6.18;;;8.10;99.90;;;;;;5207087;28;20025;-73